KMOR/MOR METAR and TAF weather

Enter ICAO airport designator
Station Type Date Time Source
KMOR METAR 2019/07/17 18:55 UTC NOAA

KMOR 171855Z AUTO 25013KT 10SM BKN019 BKN025 OVC034 27/22 A3007 RMK A01


Station Type Date Time Source
KMOR Decoded METAR 2019/07/17 18:55 UTC NOAA

Station name not available
Jul 17, 2019 - 02:55 PM EDT / 2019.07.17 1855 UTC
Wind: from the WSW (250 degrees) at 15 MPH (13 KT):0
Visibility: 10 mile(s):0
Sky conditions: overcast
Temperature: 80 F (27 C)
Dew Point: 71 F (22 C)
Relative Humidity: 74%
Pressure (altimeter): 30.07 in. Hg (1018 hPa)
ob: KMOR 171855Z AUTO 25013KT 10SM BKN019 BKN025 OVC034 27/22 A3007 RMK A01
cycle: 19

Station Type Date Time Source
KMOR TAF UTC NOAA

Error!

Example: see airport list